createdAt,value
2023-04-10T00:00:31.717Z,6.79
2023-04-10T00:03:20.695Z,6.71
2023-04-10T00:05:51.011Z,6.64
2023-04-10T00:08:20.032Z,6.57
2023-04-10T00:10:48.886Z,6.62
2023-04-10T00:13:18.544Z,6.65
2023-04-10T00:15:48.389Z,6.60
2023-04-10T00:18:17.770Z,6.54
2023-04-10T00:20:46.337Z,6.53
2023-04-10T00:23:15.207Z,6.53
2023-04-10T00:25:43.889Z,6.50
2023-04-10T00:28:12.873Z,6.43
2023-04-10T00:30:41.494Z,6.33
2023-04-10T00:33:11.010Z,6.21
2023-04-10T00:35:40.216Z,6.16
2023-04-10T00:38:09.996Z,6.22
2023-04-10T00:40:39.286Z,6.21
2023-04-10T00:43:08.380Z,6.21
2023-04-10T00:45:37.318Z,6.20
2023-04-10T00:48:06.888Z,6.22
2023-04-10T00:50:35.975Z,6.29
2023-04-10T00:53:05.232Z,6.37
2023-04-10T00:55:34.462Z,6.40
2023-04-10T00:58:03.144Z,6.35
2023-04-10T01:00:32.688Z,6.30
2023-04-10T01:03:02.125Z,6.33
2023-04-10T01:05:39.938Z,6.29
2023-04-10T01:08:32.030Z,6.18
2023-04-10T01:11:29.418Z,5.97
2023-04-10T01:14:07.758Z,5.80
2023-04-10T01:16:50.209Z,5.75
2023-04-10T01:20:01.322Z,5.75
2023-04-10T01:23:17.961Z,5.69
2023-04-10T01:25:54.393Z,5.61
2023-04-10T01:28:44.494Z,5.72
2023-04-10T01:31:20.434Z,5.83
2023-04-10T01:33:53.085Z,5.80
2023-04-10T01:36:37.564Z,5.78
2023-04-10T01:39:07.499Z,5.79
2023-04-10T01:41:37.909Z,5.78
2023-04-10T01:44:07.670Z,5.75
2023-04-10T01:46:38.789Z,5.69
2023-04-10T01:49:09.278Z,5.62
2023-04-10T01:51:38.943Z,5.61
2023-04-10T01:54:08.906Z,5.69
2023-04-10T01:56:39.355Z,5.67
2023-04-10T01:59:09.060Z,5.64
2023-04-10T02:01:38.399Z,5.64
2023-04-10T02:04:07.819Z,5.62
2023-04-10T02:06:58.490Z,5.60
2023-04-10T02:09:56.136Z,5.58
2023-04-10T02:12:31.767Z,5.53
2023-04-10T02:15:03.094Z,5.59
2023-04-10T02:17:34.307Z,5.66
2023-04-10T02:20:06.392Z,5.73
2023-04-10T02:22:35.568Z,5.74
2023-04-10T02:25:06.610Z,5.81
2023-04-10T02:27:37.244Z,5.82
2023-04-10T02:30:07.132Z,5.84
2023-04-10T02:32:36.058Z,5.86
2023-04-10T02:35:05.184Z,5.86
2023-04-10T02:37:35.114Z,5.88
2023-04-10T02:40:04.305Z,5.89
2023-04-10T02:42:33.185Z,6.00
2023-04-10T02:45:01.833Z,6.06
2023-04-10T02:47:31.018Z,6.15
2023-04-10T02:50:00.177Z,6.21
2023-04-10T02:52:29.162Z,6.27
2023-04-10T02:54:58.256Z,6.29
2023-04-10T02:57:29.300Z,6.29
2023-04-10T02:59:58.635Z,6.22
2023-04-10T03:02:27.657Z,6.10
2023-04-10T03:04:56.867Z,6.08
2023-04-10T03:07:26.138Z,6.09
2023-04-10T03:09:55.085Z,6.03
2023-04-10T03:12:24.214Z,5.97
2023-04-10T03:14:53.526Z,5.88
2023-04-10T03:17:22.839Z,5.87
2023-04-10T03:19:52.144Z,5.92
2023-04-10T03:22:21.785Z,5.89
2023-04-10T03:24:51.195Z,5.82
2023-04-10T03:27:21.198Z,5.78
2023-04-10T03:29:50.017Z,5.74
2023-04-10T03:32:19.266Z,5.74
2023-04-10T03:34:48.043Z,5.71
2023-04-10T03:37:16.938Z,5.57
2023-04-10T03:39:46.504Z,5.55
2023-04-10T03:42:15.752Z,5.56
2023-04-10T03:44:44.782Z,5.57
2023-04-10T03:47:14.076Z,5.57
2023-04-10T03:49:42.895Z,5.53
2023-04-10T03:52:11.702Z,5.50
2023-04-10T03:54:40.322Z,5.44
2023-04-10T03:57:09.507Z,5.42
2023-04-10T03:59:38.819Z,5.37
2023-04-10T04:02:08.175Z,5.31
2023-04-10T04:04:37.404Z,5.31
2023-04-10T04:07:06.469Z,5.30
2023-04-10T04:09:35.362Z,5.32
2023-04-10T04:12:03.974Z,5.26
2023-04-10T04:14:32.913Z,5.22
2023-04-10T04:17:02.142Z,5.19
2023-04-10T04:19:31.316Z,5.19
2023-04-10T04:22:00.789Z,5.14
2023-04-10T04:24:29.869Z,5.11
2023-04-10T04:26:58.335Z,5.08
2023-04-10T04:29:27.568Z,5.14
2023-04-10T04:31:56.359Z,5.19
2023-04-10T04:34:25.249Z,5.23
2023-04-10T04:36:54.055Z,5.19
2023-04-10T04:39:23.545Z,5.16
2023-04-10T04:41:52.423Z,5.19
2023-04-10T04:44:21.100Z,5.28
2023-04-10T04:46:49.816Z,5.31
2023-04-10T04:49:18.302Z,5.32
2023-04-10T04:51:47.310Z,5.34
2023-04-10T04:54:16.088Z,5.38
2023-04-10T04:56:45.038Z,5.36
2023-04-10T04:59:14.237Z,5.32
2023-04-10T05:01:42.983Z,5.27
2023-04-10T05:04:11.799Z,5.31
2023-04-10T05:06:40.670Z,5.39
2023-04-10T05:09:09.374Z,5.38
2023-04-10T05:11:38.480Z,5.41
2023-04-10T05:14:07.433Z,5.53
2023-04-10T05:16:36.606Z,5.76
2023-04-10T05:19:05.697Z,6.00
2023-04-10T05:21:36.021Z,6.19
2023-04-10T05:24:05.283Z,6.33
2023-04-10T05:26:34.622Z,6.43
2023-04-10T05:29:03.665Z,6.56
2023-04-10T05:31:32.742Z,6.71
2023-04-10T05:34:02.118Z,6.90
2023-04-10T05:36:32.460Z,7.09
2023-04-10T05:39:01.692Z,7.21
2023-04-10T05:41:30.277Z,7.28
2023-04-10T05:43:59.329Z,7.29
2023-04-10T05:46:28.347Z,7.34
2023-04-10T05:48:57.253Z,7.38
2023-04-10T05:51:27.647Z,7.43
2023-04-10T05:53:57.101Z,7.53
2023-04-10T05:56:25.991Z,7.68
2023-04-10T05:58:55.136Z,7.84
2023-04-10T06:01:23.975Z,8.13
2023-04-10T06:03:53.145Z,8.37
2023-04-10T06:06:22.718Z,8.51
2023-04-10T06:08:52.266Z,8.69
2023-04-10T06:11:22.327Z,8.85
2023-04-10T06:13:52.760Z,9.04
2023-04-10T06:16:21.855Z,9.30
2023-04-10T06:18:53.079Z,9.83
2023-04-10T06:21:21.862Z,10.51
2023-04-10T06:23:51.879Z,11.17
2023-04-10T06:26:21.281Z,11.81
2023-04-10T06:28:50.150Z,12.44
2023-04-10T06:31:22.318Z,13.13
2023-04-10T06:33:51.190Z,13.84
2023-04-10T06:36:20.040Z,14.50
2023-04-10T06:38:48.786Z,15.04
2023-04-10T06:41:18.451Z,15.52
2023-04-10T06:43:47.618Z,15.93
2023-04-10T06:46:16.636Z,15.96
2023-04-10T06:48:45.546Z,16.11
2023-04-10T06:51:14.235Z,16.61
2023-04-10T06:53:43.042Z,16.95
2023-04-10T06:56:11.817Z,17.27
2023-04-10T06:58:41.674Z,17.62
2023-04-10T07:01:10.809Z,17.84
2023-04-10T07:03:39.871Z,18.07
2023-04-10T07:06:13.131Z,18.42
2023-04-10T07:08:42.466Z,18.62
2023-04-10T07:11:13.112Z,18.55
2023-04-10T07:13:42.315Z,19.01
2023-04-10T07:16:13.181Z,19.41
2023-04-10T07:18:44.264Z,19.43
2023-04-10T07:21:14.339Z,19.47
2023-04-10T07:23:44.368Z,19.42
2023-04-10T07:26:15.059Z,19.73
2023-04-10T07:28:44.282Z,20.04
2023-04-10T07:31:14.685Z,20.83
2023-04-10T07:33:47.626Z,20.93
2023-04-10T07:36:17.873Z,20.74
2023-04-10T07:38:47.662Z,20.83
2023-04-10T07:41:17.069Z,21.20
2023-04-10T07:43:46.941Z,21.35
2023-04-10T07:46:18.667Z,21.97
2023-04-10T07:48:51.302Z,21.94
2023-04-10T07:51:21.991Z,22.25
2023-04-10T07:53:51.924Z,22.49
2023-04-10T07:56:22.265Z,22.45
2023-04-10T07:58:52.515Z,22.72
2023-04-10T08:01:22.322Z,22.84
2023-04-10T08:03:53.138Z,23.13
2023-04-10T08:06:23.293Z,23.64
2023-04-10T08:08:56.255Z,23.64
2023-04-10T08:11:31.369Z,23.12
2023-04-10T08:14:02.854Z,22.63
2023-04-10T08:16:34.847Z,21.82
2023-04-10T08:19:04.954Z,20.73
2023-04-10T08:21:33.970Z,19.96
2023-04-10T08:24:04.758Z,19.28
2023-04-10T08:26:34.215Z,18.51
2023-04-10T08:29:04.459Z,17.90
2023-04-10T08:31:34.505Z,17.50
2023-04-10T08:34:05.074Z,17.27
2023-04-10T08:36:35.615Z,17.39
2023-04-10T08:39:05.484Z,18.11
2023-04-10T08:41:34.589Z,19.35
2023-04-10T08:44:06.956Z,19.92
2023-04-10T08:46:38.193Z,19.51
2023-04-10T08:49:08.243Z,20.89
2023-04-10T08:51:48.670Z,21.50
2023-04-10T08:54:21.914Z,22.63
2023-04-10T08:56:54.634Z,23.60
2023-04-10T08:59:23.843Z,24.23
2023-04-10T09:01:53.897Z,24.70
2023-04-10T09:04:26.967Z,25.43
2023-04-10T09:06:56.218Z,25.03
2023-04-10T09:09:25.717Z,24.79
2023-04-10T09:11:55.998Z,25.33
2023-04-10T09:14:27.291Z,25.45
2023-04-10T09:17:12.002Z,25.09
2023-04-10T09:19:41.936Z,26.20
2023-04-10T09:22:12.141Z,27.07
2023-04-10T09:24:43.889Z,27.38
2023-04-10T09:27:29.709Z,27.91
2023-04-10T09:29:59.043Z,27.63
2023-04-10T09:32:44.331Z,28.28
2023-04-10T09:35:15.878Z,26.97
2023-04-10T09:37:47.319Z,26.69
2023-04-10T09:40:27.066Z,26.80
2023-04-10T09:42:58.046Z,27.48
2023-04-10T09:45:27.562Z,26.87
2023-04-10T09:48:08.447Z,26.82
2023-04-10T09:50:40.421Z,25.57
2023-04-10T09:53:15.009Z,25.66
2023-04-10T09:55:44.376Z,24.39
2023-04-10T09:58:14.821Z,25.26
2023-04-10T10:00:50.518Z,26.84
2023-04-10T10:03:23.733Z,27.11
2023-04-10T10:05:52.891Z,27.59
2023-04-10T10:08:22.928Z,26.49
2023-04-10T10:10:55.619Z,25.73
2023-04-10T10:13:29.923Z,24.59
2023-04-10T10:16:05.110Z,24.64
2023-04-10T10:18:46.719Z,24.09
2023-04-10T10:21:16.860Z,23.39
2023-04-10T10:23:49.642Z,22.49
2023-04-10T10:26:21.361Z,21.89
2023-04-10T10:28:53.794Z,21.42
2023-04-10T10:31:25.823Z,21.50
2023-04-10T10:33:56.846Z,22.22
2023-04-10T10:36:28.109Z,23.93
2023-04-10T10:39:09.647Z,24.39
2023-04-10T10:41:50.162Z,25.44
2023-04-10T10:44:46.407Z,26.70
2023-04-10T10:47:20.368Z,26.64
2023-04-10T10:50:00.720Z,27.32
2023-04-10T10:52:51.921Z,26.25
2023-04-10T10:55:28.377Z,26.65
2023-04-10T10:58:01.668Z,27.61
2023-04-10T11:00:52.859Z,27.07
2023-04-10T11:03:23.185Z,25.61
2023-04-10T11:05:56.707Z,24.86
2023-04-10T11:08:41.082Z,24.44
2023-04-10T11:11:13.574Z,23.26
2023-04-10T11:13:56.779Z,22.78
2023-04-10T11:16:33.602Z,22.80
2023-04-10T11:19:15.803Z,22.22
2023-04-10T11:21:58.699Z,21.57
2023-04-10T11:24:29.003Z,22.18
2023-04-10T11:27:00.479Z,22.33
2023-04-10T11:29:32.304Z,22.88
2023-04-10T11:32:07.085Z,22.71
2023-04-10T11:34:46.197Z,23.91
2023-04-10T11:37:24.513Z,24.42
2023-04-10T11:40:07.618Z,23.69
2023-04-10T11:42:37.001Z,23.53
2023-04-10T11:45:29.010Z,23.16
2023-04-10T11:48:00.454Z,22.93
2023-04-10T11:50:32.894Z,23.65
2023-04-10T11:53:02.349Z,23.58
2023-04-10T11:55:40.124Z,23.61
2023-04-10T11:58:26.608Z,25.44
2023-04-10T12:01:04.752Z,25.48
2023-04-10T12:03:40.694Z,25.70
2023-04-10T12:06:15.797Z,25.04
2023-04-10T12:08:52.727Z,24.44
2023-04-10T12:11:24.917Z,23.57
2023-04-10T12:13:56.088Z,23.32
2023-04-10T12:16:28.239Z,23.90
2023-04-10T12:18:58.284Z,24.14
2023-04-10T12:21:27.928Z,25.32
2023-04-10T12:23:57.139Z,26.49
2023-04-10T12:26:27.631Z,27.33
2023-04-10T12:28:58.473Z,28.19
2023-04-10T12:31:31.276Z,28.84
2023-04-10T12:34:05.803Z,28.98
2023-04-10T12:36:35.495Z,29.83
2023-04-10T12:39:06.544Z,30.03
2023-04-10T12:41:38.024Z,30.54
2023-04-10T12:44:15.762Z,30.90
2023-04-10T12:46:46.792Z,31.42
2023-04-10T12:49:19.197Z,31.88
2023-04-10T12:51:50.852Z,31.88
2023-04-10T12:54:30.078Z,31.91
2023-04-10T12:57:00.273Z,30.88
2023-04-10T12:59:33.050Z,29.80
2023-04-10T13:02:02.150Z,28.20
2023-04-10T13:04:33.765Z,27.09
2023-04-10T13:07:03.634Z,26.46
2023-04-10T13:09:32.745Z,26.66
2023-04-10T13:12:02.380Z,26.53
2023-04-10T13:14:32.400Z,25.96
2023-04-10T13:17:01.425Z,25.32
2023-04-10T13:19:31.487Z,25.21
2023-04-10T13:22:02.774Z,26.37
2023-04-10T13:24:32.238Z,27.28
2023-04-10T13:27:02.574Z,27.99
2023-04-10T13:29:31.934Z,28.02
2023-04-10T13:32:02.133Z,28.25
2023-04-10T13:34:34.991Z,28.15
2023-04-10T13:37:04.234Z,27.29
2023-04-10T13:39:33.832Z,26.58
2023-04-10T13:42:03.274Z,27.23
2023-04-10T13:44:32.960Z,27.94
2023-04-10T13:47:02.725Z,28.42
2023-04-10T13:49:32.312Z,28.71
2023-04-10T13:52:02.212Z,29.27
2023-04-10T13:54:31.569Z,29.03
2023-04-10T13:57:01.681Z,29.22
2023-04-10T13:59:31.230Z,29.66
2023-04-10T14:02:01.310Z,29.65
2023-04-10T14:04:30.474Z,29.58
2023-04-10T14:07:01.010Z,29.30
2023-04-10T14:09:30.358Z,29.01
2023-04-10T14:11:59.729Z,29.04
2023-04-10T14:14:29.245Z,29.25
2023-04-10T14:16:58.920Z,29.45
2023-04-10T14:19:28.805Z,29.18
2023-04-10T14:21:57.804Z,28.40
2023-04-10T14:24:26.730Z,27.53
2023-04-10T14:26:58.769Z,27.36
2023-04-10T14:32:02.248Z,27.40
2023-04-10T14:34:32.370Z,27.66
2023-04-10T14:37:03.516Z,27.38
2023-04-10T14:39:35.015Z,27.32
2023-04-10T14:42:04.475Z,27.17
2023-04-10T14:44:35.350Z,26.59
2023-04-10T14:47:07.533Z,26.36
2023-04-10T14:49:38.417Z,26.68
2023-04-10T14:52:09.524Z,26.94
2023-04-10T14:54:40.911Z,26.17
2023-04-10T14:57:11.699Z,25.19
2023-04-10T14:59:40.572Z,24.93
2023-04-10T15:02:10.185Z,24.81
2023-04-10T15:04:39.406Z,25.07
2023-04-10T15:07:08.883Z,24.72
2023-04-10T15:09:38.419Z,24.45
2023-04-10T15:12:08.384Z,24.35
2023-04-10T15:14:38.824Z,24.43
2023-04-10T15:17:08.296Z,24.61
2023-04-10T15:19:38.084Z,24.73
2023-04-10T15:22:07.728Z,24.68
2023-04-10T15:24:49.332Z,24.61
2023-04-10T15:27:22.835Z,24.54
2023-04-10T15:29:52.204Z,24.58
2023-04-10T15:32:21.386Z,24.21
2023-04-10T15:34:51.230Z,24.51
2023-04-10T15:37:22.134Z,24.40
2023-04-10T15:39:51.850Z,24.46
2023-04-10T15:42:21.708Z,24.56
2023-04-10T15:44:51.941Z,24.70
2023-04-10T15:47:21.369Z,24.59
2023-04-10T15:49:50.838Z,24.47
2023-04-10T15:52:19.730Z,24.42
2023-04-10T15:54:51.264Z,24.26
2023-04-10T15:57:21.976Z,24.01
2023-04-10T15:59:54.614Z,24.00
2023-04-10T16:02:24.191Z,23.59
2023-04-10T16:04:54.407Z,23.33
2023-04-10T16:07:26.655Z,22.78
2023-04-10T16:09:57.559Z,22.60
2023-04-10T16:12:27.348Z,22.41
2023-04-10T16:14:57.954Z,22.17
2023-04-10T16:17:27.432Z,21.76
2023-04-10T16:19:58.235Z,21.39
2023-04-10T16:22:28.588Z,21.07
2023-04-10T16:24:58.187Z,20.77
2023-04-10T16:27:28.143Z,20.66
2023-04-10T16:29:57.767Z,20.44
2023-04-10T16:32:28.436Z,20.20
2023-04-10T16:34:59.396Z,20.01
2023-04-10T16:37:28.373Z,19.89
2023-04-10T16:39:58.690Z,19.78
2023-04-10T16:42:28.020Z,19.71
2023-04-10T16:44:59.432Z,19.60
2023-04-10T16:47:29.532Z,19.34
2023-04-10T16:49:58.793Z,19.22
2023-04-10T16:52:33.190Z,19.12
2023-04-10T16:55:02.857Z,18.94
2023-04-10T16:57:34.006Z,18.76
2023-04-10T17:00:03.381Z,18.61
2023-04-10T17:02:34.809Z,18.52
2023-04-10T17:05:05.050Z,18.39
2023-04-10T17:07:35.341Z,18.29
2023-04-10T17:10:05.923Z,18.19
2023-04-10T17:12:36.882Z,18.15
2023-04-10T17:15:07.870Z,18.03
2023-04-10T17:17:37.453Z,17.94
2023-04-10T17:20:10.443Z,17.85
2023-04-10T17:22:41.343Z,17.75
2023-04-10T17:25:11.863Z,17.64
2023-04-10T17:27:41.454Z,17.51
2023-04-10T17:30:15.631Z,17.35
2023-04-10T17:32:46.103Z,17.15
2023-04-10T17:35:16.445Z,17.02
2023-04-10T17:37:45.508Z,16.91
2023-04-10T17:40:14.826Z,16.80
2023-04-10T17:42:44.848Z,16.63
2023-04-10T17:45:14.493Z,16.47
2023-04-10T17:47:44.938Z,16.32
2023-04-10T17:50:14.661Z,16.15
2023-04-10T17:52:44.997Z,15.97
2023-04-10T17:55:20.516Z,15.80
2023-04-10T17:57:51.247Z,15.62
2023-04-10T18:00:22.116Z,15.55
2023-04-10T18:02:53.602Z,15.48
2023-04-10T18:05:23.385Z,15.34
2023-04-10T18:07:52.546Z,15.23
2023-04-10T18:10:22.285Z,15.12
2023-04-10T18:12:51.442Z,15.02
2023-04-10T18:15:20.509Z,14.93
2023-04-10T18:17:49.599Z,14.85
2023-04-10T18:20:19.834Z,14.79
2023-04-10T18:22:49.560Z,14.65
2023-04-10T18:25:18.903Z,14.47
2023-04-10T18:28:12.574Z,14.34
2023-04-10T18:30:40.475Z,14.21
2023-04-10T18:33:11.260Z,14.15
2023-04-10T18:35:41.842Z,14.05
2023-04-10T18:38:11.593Z,14.01
2023-04-10T18:40:42.070Z,13.95
2023-04-10T18:43:11.707Z,13.89
2023-04-10T18:45:42.483Z,13.81
2023-04-10T18:48:11.499Z,13.71
2023-04-10T18:50:40.257Z,13.68
2023-04-10T18:53:10.201Z,13.63
2023-04-10T18:55:39.775Z,13.57
2023-04-10T18:58:08.875Z,13.51
2023-04-10T19:00:38.141Z,13.44
2023-04-10T19:03:08.323Z,13.42
2023-04-10T19:05:37.595Z,13.42
2023-04-10T19:08:06.818Z,13.36
2023-04-10T19:10:38.547Z,13.26
2023-04-10T19:13:12.481Z,13.06
2023-04-10T19:15:48.116Z,12.92
2023-04-10T19:18:17.733Z,12.76
2023-04-10T19:20:49.973Z,12.74
2023-04-10T19:23:25.172Z,12.75
2023-04-10T19:25:55.647Z,12.74
2023-04-10T19:28:26.136Z,12.76
2023-04-10T19:30:56.298Z,12.77
2023-04-10T19:33:27.113Z,12.70
2023-04-10T19:35:56.718Z,12.69
2023-04-10T19:38:27.921Z,12.67
2023-04-10T19:40:57.489Z,12.56
2023-04-10T19:43:27.285Z,12.37
2023-04-10T19:46:00.209Z,12.25
2023-04-10T19:48:29.883Z,12.17
2023-04-10T19:51:05.613Z,12.13
2023-04-10T19:53:35.118Z,12.03
2023-04-10T19:56:04.473Z,11.96
2023-04-10T19:58:40.714Z,11.91
2023-04-10T20:01:12.159Z,11.79
2023-04-10T20:03:41.773Z,11.69
2023-04-10T20:06:12.117Z,11.65
2023-04-10T20:08:41.831Z,11.60
2023-04-10T20:11:11.294Z,11.48
2023-04-10T20:13:42.083Z,11.36
2023-04-10T20:16:12.399Z,11.28
2023-04-10T20:18:41.742Z,11.23
2023-04-10T20:21:11.772Z,11.20
2023-04-10T20:23:41.751Z,11.12
2023-04-10T20:26:12.538Z,11.06
2023-04-10T20:28:41.897Z,11.00
2023-04-10T20:31:13.099Z,10.92
2023-04-10T20:33:42.844Z,10.76
2023-04-10T20:36:13.571Z,10.58
2023-04-10T20:38:43.130Z,10.51
2023-04-10T20:41:12.985Z,10.47
2023-04-10T20:43:42.887Z,10.44
2023-04-10T20:46:12.949Z,10.42
2023-04-10T20:48:42.405Z,10.36
2023-04-10T20:51:11.664Z,10.31
2023-04-10T20:53:41.022Z,10.21
2023-04-10T20:56:11.000Z,10.14
2023-04-10T20:58:40.111Z,10.11
2023-04-10T21:01:10.930Z,10.09
2023-04-10T21:03:40.100Z,10.11
2023-04-10T21:06:09.992Z,10.13
2023-04-10T21:08:39.153Z,10.08
2023-04-10T21:11:08.626Z,10.00
2023-04-10T21:13:38.734Z,9.96
2023-04-10T21:16:08.690Z,9.94
2023-04-10T21:18:38.373Z,9.86
2023-04-10T21:21:08.030Z,9.75
2023-04-10T21:23:37.368Z,9.67
2023-04-10T21:26:06.777Z,9.62
2023-04-10T21:28:36.355Z,9.57
2023-04-10T21:31:06.038Z,9.54
2023-04-10T21:33:35.973Z,9.49
2023-04-10T21:36:07.330Z,9.30
2023-04-10T21:38:37.659Z,9.15
2023-04-10T21:41:07.622Z,9.06
2023-04-10T21:43:37.472Z,9.03
2023-04-10T21:46:08.493Z,8.94
2023-04-10T21:48:37.501Z,8.86
2023-04-10T21:51:06.651Z,8.81
2023-04-10T21:53:35.339Z,8.77
2023-04-10T21:56:04.226Z,8.75
2023-04-10T21:58:33.428Z,8.74
2023-04-10T22:01:03.187Z,8.71
2023-04-10T22:03:33.235Z,8.69
2023-04-10T22:06:03.063Z,8.65
2023-04-10T22:08:33.039Z,8.59
2023-04-10T22:11:05.274Z,8.48
2023-04-10T22:13:36.328Z,8.39
2023-04-10T22:16:06.673Z,8.38
2023-04-10T22:18:36.417Z,8.38
2023-04-10T22:21:06.050Z,8.39
2023-04-10T22:23:35.773Z,8.35
2023-04-10T22:26:05.210Z,8.32
2023-04-10T22:28:34.776Z,8.29
2023-04-10T22:31:04.648Z,8.26
2023-04-10T22:33:35.665Z,8.22
2023-04-10T22:36:06.270Z,8.23
2023-04-10T22:38:36.744Z,8.17
2023-04-10T22:41:07.111Z,8.15
2023-04-10T22:43:37.392Z,8.07
2023-04-10T22:46:07.066Z,8.00
2023-04-10T22:48:37.368Z,7.95
2023-04-10T22:51:14.358Z,7.94
2023-04-10T22:53:45.784Z,7.94
2023-04-10T22:56:16.874Z,7.93
2023-04-10T22:58:47.400Z,7.92
2023-04-10T23:01:18.705Z,7.85
2023-04-10T23:03:54.310Z,7.87
2023-04-10T23:06:24.422Z,7.68
2023-04-10T23:08:54.788Z,7.53
2023-04-10T23:11:24.312Z,7.43
2023-04-10T23:13:53.742Z,7.32
2023-04-10T23:16:23.301Z,7.21
2023-04-10T23:18:52.062Z,7.22
2023-04-10T23:21:21.331Z,7.26
2023-04-10T23:23:50.332Z,7.28
2023-04-10T23:26:19.734Z,7.34
2023-04-10T23:28:49.109Z,7.39
2023-04-10T23:31:18.309Z,7.36
2023-04-10T23:33:47.091Z,7.26
2023-04-10T23:36:16.130Z,7.21
2023-04-10T23:38:45.091Z,7.19
2023-04-10T23:41:14.136Z,7.01
2023-04-10T23:43:43.146Z,6.94
2023-04-10T23:46:12.427Z,6.89
2023-04-10T23:48:42.037Z,6.92
2023-04-10T23:51:11.328Z,6.87
2023-04-10T23:53:41.106Z,6.89
2023-04-10T23:56:10.174Z,6.96
2023-04-10T23:58:39.519Z,6.99
